sensor_id;sensor_type;location;lat;lon;timestamp;P1;durP1;ratioP1;P2;durP2;ratioP2
46348;SDS011;32057;47.830;19.046;2024-01-10T00:01:12;5.55;;;3.72;;
46348;SDS011;32057;47.830;19.046;2024-01-10T00:03:37;12.90;;;4.97;;
46348;SDS011;32057;47.830;19.046;2024-01-10T00:06:02;3.78;;;3.28;;
46348;SDS011;32057;47.830;19.046;2024-01-10T00:08:28;7.25;;;3.67;;
46348;SDS011;32057;47.830;19.046;2024-01-10T00:10:53;6.20;;;3.33;;
46348;SDS011;32057;47.830;19.046;2024-01-10T00:13:21;7.38;;;4.13;;
46348;SDS011;32057;47.830;19.046;2024-01-10T00:15:47;6.35;;;3.53;;
46348;SDS011;32057;47.830;19.046;2024-01-10T00:18:13;6.85;;;2.28;;
46348;SDS011;32057;47.830;19.046;2024-01-10T00:20:38;3.78;;;2.65;;
46348;SDS011;32057;47.830;19.046;2024-01-10T00:23:04;3.05;;;2.85;;
46348;SDS011;32057;47.830;19.046;2024-01-10T00:25:31;5.07;;;3.13;;
46348;SDS011;32057;47.830;19.046;2024-01-10T00:27:56;12.70;;;5.47;;
46348;SDS011;32057;47.830;19.046;2024-01-10T00:30:21;10.57;;;3.22;;
46348;SDS011;32057;47.830;19.046;2024-01-10T00:32:47;7.95;;;4.03;;
46348;SDS011;32057;47.830;19.046;2024-01-10T00:35:12;7.35;;;2.97;;
46348;SDS011;32057;47.830;19.046;2024-01-10T00:37:38;7.03;;;3.97;;
46348;SDS011;32057;47.830;19.046;2024-01-10T00:40:03;6.05;;;3.00;;
46348;SDS011;32057;47.830;19.046;2024-01-10T00:42:29;9.05;;;3.17;;
46348;SDS011;32057;47.830;19.046;2024-01-10T00:44:54;6.60;;;3.97;;
46348;SDS011;32057;47.830;19.046;2024-01-10T00:47:20;3.83;;;2.63;;
46348;SDS011;32057;47.830;19.046;2024-01-10T00:49:45;5.10;;;2.53;;
46348;SDS011;32057;47.830;19.046;2024-01-10T00:52:10;10.80;;;3.83;;
46348;SDS011;32057;47.830;19.046;2024-01-10T00:54:36;5.82;;;4.15;;
46348;SDS011;32057;47.830;19.046;2024-01-10T00:57:01;8.00;;;3.95;;
46348;SDS011;32057;47.830;19.046;2024-01-10T00:59:26;3.33;;;2.95;;
46348;SDS011;32057;47.830;19.046;2024-01-10T01:01:52;8.32;;;5.53;;
46348;SDS011;32057;47.830;19.046;2024-01-10T01:04:17;8.95;;;4.22;;
46348;SDS011;32057;47.830;19.046;2024-01-10T01:06:43;7.72;;;4.13;;
46348;SDS011;32057;47.830;19.046;2024-01-10T01:09:08;32.33;;;5.70;;
46348;SDS011;32057;47.830;19.046;2024-01-10T01:11:33;6.57;;;3.75;;
46348;SDS011;32057;47.830;19.046;2024-01-10T01:13:59;6.53;;;3.20;;
46348;SDS011;32057;47.830;19.046;2024-01-10T01:16:24;4.97;;;3.70;;
46348;SDS011;32057;47.830;19.046;2024-01-10T01:18:49;5.90;;;3.58;;
46348;SDS011;32057;47.830;19.046;2024-01-10T01:21:15;5.15;;;2.95;;
46348;SDS011;32057;47.830;19.046;2024-01-10T01:23:40;4.78;;;3.15;;
46348;SDS011;32057;47.830;19.046;2024-01-10T01:26:05;6.40;;;3.28;;
46348;SDS011;32057;47.830;19.046;2024-01-10T01:28:31;5.30;;;3.28;;
46348;SDS011;32057;47.830;19.046;2024-01-10T01:30:56;5.45;;;1.73;;
46348;SDS011;32057;47.830;19.046;2024-01-10T01:33:22;4.07;;;3.10;;
46348;SDS011;32057;47.830;19.046;2024-01-10T01:35:47;5.43;;;2.88;;
46348;SDS011;32057;47.830;19.046;2024-01-10T01:38:13;20.10;;;4.18;;
46348;SDS011;32057;47.830;19.046;2024-01-10T01:40:38;9.93;;;2.38;;
46348;SDS011;32057;47.830;19.046;2024-01-10T01:43:23;3.33;;;2.25;;
46348;SDS011;32057;47.830;19.046;2024-01-10T01:45:53;5.38;;;4.07;;
46348;SDS011;32057;47.830;19.046;2024-01-10T01:48:20;9.38;;;3.53;;
46348;SDS011;32057;47.830;19.046;2024-01-10T01:50:47;5.47;;;3.13;;
46348;SDS011;32057;47.830;19.046;2024-01-10T01:53:15;11.43;;;3.65;;
46348;SDS011;32057;47.830;19.046;2024-01-10T01:55:42;8.50;;;3.85;;
46348;SDS011;32057;47.830;19.046;2024-01-10T01:58:09;6.68;;;3.60;;
46348;SDS011;32057;47.830;19.046;2024-01-10T02:00:35;2.85;;;2.35;;
46348;SDS011;32057;47.830;19.046;2024-01-10T02:03:02;4.60;;;3.10;;
46348;SDS011;32057;47.830;19.046;2024-01-10T02:05:27;3.10;;;2.80;;
46348;SDS011;32057;47.830;19.046;2024-01-10T02:07:53;3.20;;;2.42;;
46348;SDS011;32057;47.830;19.046;2024-01-10T02:10:20;4.55;;;3.33;;
46348;SDS011;32057;47.830;19.046;2024-01-10T02:12:46;9.57;;;3.50;;
46348;SDS011;32057;47.830;19.046;2024-01-10T02:15:12;2.65;;;2.38;;
46348;SDS011;32057;47.830;19.046;2024-01-10T02:17:38;2.40;;;2.05;;
46348;SDS011;32057;47.830;19.046;2024-01-10T02:20:10;4.47;;;2.40;;
46348;SDS011;32057;47.830;19.046;2024-01-10T02:22:37;17.02;;;3.70;;
46348;SDS011;32057;47.830;19.046;2024-01-10T02:25:03;4.00;;;3.08;;
46348;SDS011;32057;47.830;19.046;2024-01-10T02:27:30;5.00;;;2.22;;
46348;SDS011;32057;47.830;19.046;2024-01-10T02:29:55;4.57;;;2.63;;
46348;SDS011;32057;47.830;19.046;2024-01-10T02:32:22;4.95;;;2.42;;
46348;SDS011;32057;47.830;19.046;2024-01-10T02:34:48;5.00;;;3.17;;
46348;SDS011;32057;47.830;19.046;2024-01-10T02:37:13;2.67;;;2.15;;
46348;SDS011;32057;47.830;19.046;2024-01-10T02:39:39;4.88;;;3.45;;
46348;SDS011;32057;47.830;19.046;2024-01-10T02:42:04;5.15;;;2.08;;
46348;SDS011;32057;47.830;19.046;2024-01-10T02:44:30;6.88;;;1.63;;
46348;SDS011;32057;47.830;19.046;2024-01-10T02:46:55;3.15;;;2.58;;
46348;SDS011;32057;47.830;19.046;2024-01-10T02:49:20;8.48;;;3.47;;
46348;SDS011;32057;47.830;19.046;2024-01-10T02:51:45;4.32;;;2.20;;
46348;SDS011;32057;47.830;19.046;2024-01-10T02:54:11;5.47;;;2.35;;
46348;SDS011;32057;47.830;19.046;2024-01-10T02:56:36;3.03;;;2.17;;
46348;SDS011;32057;47.830;19.046;2024-01-10T02:59:01;3.30;;;2.10;;
46348;SDS011;32057;47.830;19.046;2024-01-10T03:01:27;2.15;;;1.67;;
46348;SDS011;32057;47.830;19.046;2024-01-10T03:03:53;3.88;;;2.22;;
46348;SDS011;32057;47.830;19.046;2024-01-10T03:06:18;6.00;;;1.92;;
46348;SDS011;32057;47.830;19.046;2024-01-10T03:08:43;7.43;;;2.78;;
46348;SDS011;32057;47.830;19.046;2024-01-10T03:11:08;3.53;;;2.80;;
46348;SDS011;32057;47.830;19.046;2024-01-10T03:13:34;3.25;;;2.55;;
46348;SDS011;32057;47.830;19.046;2024-01-10T03:15:59;2.17;;;2.00;;
46348;SDS011;32057;47.830;19.046;2024-01-10T03:18:24;9.95;;;1.95;;
46348;SDS011;32057;47.830;19.046;2024-01-10T03:20:50;3.78;;;2.60;;
46348;SDS011;32057;47.830;19.046;2024-01-10T03:23:15;1.73;;;1.63;;
46348;SDS011;32057;47.830;19.046;2024-01-10T03:25:40;5.25;;;1.95;;
46348;SDS011;32057;47.830;19.046;2024-01-10T03:28:06;1.95;;;1.85;;
46348;SDS011;32057;47.830;19.046;2024-01-10T03:30:31;7.70;;;4.45;;
46348;SDS011;32057;47.830;19.046;2024-01-10T03:32:56;3.30;;;2.42;;
46348;SDS011;32057;47.830;19.046;2024-01-10T03:35:21;2.30;;;2.10;;
46348;SDS011;32057;47.830;19.046;2024-01-10T03:37:47;3.35;;;1.52;;
46348;SDS011;32057;47.830;19.046;2024-01-10T03:40:12;2.78;;;2.45;;
46348;SDS011;32057;47.830;19.046;2024-01-10T03:42:38;3.13;;;2.17;;
46348;SDS011;32057;47.830;19.046;2024-01-10T03:45:03;1.20;;;1.08;;
46348;SDS011;32057;47.830;19.046;2024-01-10T03:47:29;5.03;;;1.65;;
46348;SDS011;32057;47.830;19.046;2024-01-10T03:49:55;3.40;;;2.40;;
46348;SDS011;32057;47.830;19.046;2024-01-10T03:52:20;6.88;;;4.07;;
46348;SDS011;32057;47.830;19.046;2024-01-10T03:54:45;7.82;;;3.30;;
46348;SDS011;32057;47.830;19.046;2024-01-10T03:57:11;3.45;;;2.55;;
46348;SDS011;32057;47.830;19.046;2024-01-10T03:59:36;2.60;;;2.40;;
46348;SDS011;32057;47.830;19.046;2024-01-10T04:02:01;1.70;;;1.60;;
46348;SDS011;32057;47.830;19.046;2024-01-10T04:04:27;3.08;;;2.55;;
46348;SDS011;32057;47.830;19.046;2024-01-10T04:06:52;3.70;;;1.92;;
46348;SDS011;32057;47.830;19.046;2024-01-10T04:09:18;4.43;;;2.55;;
46348;SDS011;32057;47.830;19.046;2024-01-10T04:11:43;3.20;;;2.45;;
46348;SDS011;32057;47.830;19.046;2024-01-10T04:14:08;1.45;;;1.05;;
46348;SDS011;32057;47.830;19.046;2024-01-10T04:16:33;1.88;;;1.48;;
46348;SDS011;32057;47.830;19.046;2024-01-10T04:18:59;3.58;;;2.33;;
46348;SDS011;32057;47.830;19.046;2024-01-10T04:21:24;2.17;;;1.98;;
46348;SDS011;32057;47.830;19.046;2024-01-10T04:23:49;2.78;;;2.58;;
46348;SDS011;32057;47.830;19.046;2024-01-10T04:26:16;3.38;;;3.08;;
46348;SDS011;32057;47.830;19.046;2024-01-10T04:28:42;4.47;;;2.92;;
46348;SDS011;32057;47.830;19.046;2024-01-10T04:31:07;2.97;;;1.90;;
46348;SDS011;32057;47.830;19.046;2024-01-10T04:33:33;9.38;;;4.68;;
46348;SDS011;32057;47.830;19.046;2024-01-10T04:35:58;17.73;;;2.63;;
46348;SDS011;32057;47.830;19.046;2024-01-10T04:38:23;2.35;;;1.52;;
46348;SDS011;32057;47.830;19.046;2024-01-10T04:40:51;2.40;;;2.05;;
46348;SDS011;32057;47.830;19.046;2024-01-10T04:43:16;1.67;;;1.52;;
46348;SDS011;32057;47.830;19.046;2024-01-10T04:45:42;2.63;;;2.20;;
46348;SDS011;32057;47.830;19.046;2024-01-10T04:48:07;2.22;;;2.05;;
46348;SDS011;32057;47.830;19.046;2024-01-10T04:50:32;1.00;;;0.90;;
46348;SDS011;32057;47.830;19.046;2024-01-10T04:52:59;2.42;;;1.20;;
46348;SDS011;32057;47.830;19.046;2024-01-10T04:55:24;2.10;;;2.00;;
46348;SDS011;32057;47.830;19.046;2024-01-10T04:57:50;6.47;;;2.17;;
46348;SDS011;32057;47.830;19.046;2024-01-10T05:00:15;8.27;;;1.95;;
46348;SDS011;32057;47.830;19.046;2024-01-10T05:02:41;2.92;;;1.25;;
46348;SDS011;32057;47.830;19.046;2024-01-10T05:05:06;5.78;;;2.40;;
46348;SDS011;32057;47.830;19.046;2024-01-10T05:07:31;1.45;;;1.27;;
46348;SDS011;32057;47.830;19.046;2024-01-10T05:09:57;9.50;;;1.77;;
46348;SDS011;32057;47.830;19.046;2024-01-10T05:12:22;1.58;;;1.38;;
46348;SDS011;32057;47.830;19.046;2024-01-10T05:14:47;2.80;;;2.45;;
46348;SDS011;32057;47.830;19.046;2024-01-10T05:17:13;2.28;;;2.08;;
46348;SDS011;32057;47.830;19.046;2024-01-10T05:19:38;1.02;;;1.02;;
46348;SDS011;32057;47.830;19.046;2024-01-10T05:22:04;5.45;;;2.13;;
46348;SDS011;32057;47.830;19.046;2024-01-10T05:24:30;1.55;;;1.45;;
46348;SDS011;32057;47.830;19.046;2024-01-10T05:26:55;3.25;;;2.08;;
46348;SDS011;32057;47.830;19.046;2024-01-10T05:29:21;2.10;;;1.45;;
46348;SDS011;32057;47.830;19.046;2024-01-10T05:31:48;6.20;;;2.35;;
46348;SDS011;32057;47.830;19.046;2024-01-10T05:34:14;5.28;;;2.53;;
46348;SDS011;32057;47.830;19.046;2024-01-10T05:36:39;1.90;;;1.55;;
46348;SDS011;32057;47.830;19.046;2024-01-10T05:39:05;2.08;;;1.65;;
46348;SDS011;32057;47.830;19.046;2024-01-10T05:41:30;2.65;;;1.88;;
46348;SDS011;32057;47.830;19.046;2024-01-10T05:43:55;5.38;;;2.78;;
46348;SDS011;32057;47.830;19.046;2024-01-10T05:46:20;4.68;;;1.95;;
46348;SDS011;32057;47.830;19.046;2024-01-10T05:48:46;2.45;;;1.95;;
46348;SDS011;32057;47.830;19.046;2024-01-10T05:51:11;2.03;;;1.92;;
46348;SDS011;32057;47.830;19.046;2024-01-10T05:53:37;2.78;;;2.58;;
46348;SDS011;32057;47.830;19.046;2024-01-10T05:56:02;2.70;;;2.33;;
46348;SDS011;32057;47.830;19.046;2024-01-10T05:58:30;4.15;;;2.05;;
46348;SDS011;32057;47.830;19.046;2024-01-10T06:00:56;4.50;;;1.85;;
46348;SDS011;32057;47.830;19.046;2024-01-10T06:03:21;4.07;;;3.00;;
46348;SDS011;32057;47.830;19.046;2024-01-10T06:05:46;4.20;;;2.65;;
46348;SDS011;32057;47.830;19.046;2024-01-10T06:08:12;1.80;;;1.20;;
46348;SDS011;32057;47.830;19.046;2024-01-10T06:10:39;1.92;;;1.70;;
46348;SDS011;32057;47.830;19.046;2024-01-10T06:13:04;3.85;;;2.90;;
46348;SDS011;32057;47.830;19.046;2024-01-10T06:15:29;2.83;;;2.63;;
46348;SDS011;32057;47.830;19.046;2024-01-10T06:17:55;2.35;;;2.00;;
46348;SDS011;32057;47.830;19.046;2024-01-10T06:20:20;1.90;;;1.75;;
46348;SDS011;32057;47.830;19.046;2024-01-10T06:22:46;5.28;;;2.22;;
46348;SDS011;32057;47.830;19.046;2024-01-10T06:25:11;4.13;;;2.13;;
46348;SDS011;32057;47.830;19.046;2024-01-10T06:27:37;2.83;;;2.60;;
46348;SDS011;32057;47.830;19.046;2024-01-10T06:30:02;2.60;;;2.40;;
46348;SDS011;32057;47.830;19.046;2024-01-10T06:32:28;6.43;;;2.88;;
46348;SDS011;32057;47.830;19.046;2024-01-10T06:34:53;2.63;;;2.40;;
46348;SDS011;32057;47.830;19.046;2024-01-10T06:37:19;6.47;;;2.63;;
46348;SDS011;32057;47.830;19.046;2024-01-10T06:39:44;6.28;;;3.42;;
46348;SDS011;32057;47.830;19.046;2024-01-10T06:42:09;7.13;;;2.42;;
46348;SDS011;32057;47.830;19.046;2024-01-10T06:44:36;3.95;;;2.17;;
46348;SDS011;32057;47.830;19.046;2024-01-10T06:47:02;4.60;;;3.25;;
46348;SDS011;32057;47.830;19.046;2024-01-10T06:49:29;3.92;;;3.58;;
46348;SDS011;32057;47.830;19.046;2024-01-10T06:51:54;6.88;;;2.75;;
46348;SDS011;32057;47.830;19.046;2024-01-10T06:54:19;3.47;;;3.17;;
46348;SDS011;32057;47.830;19.046;2024-01-10T06:56:45;9.05;;;3.78;;
46348;SDS011;32057;47.830;19.046;2024-01-10T06:59:10;4.63;;;2.05;;
46348;SDS011;32057;47.830;19.046;2024-01-10T07:01:36;15.20;;;7.57;;
46348;SDS011;32057;47.830;19.046;2024-01-10T07:04:01;13.95;;;7.88;;
46348;SDS011;32057;47.830;19.046;2024-01-10T07:06:27;10.20;;;6.55;;
46348;SDS011;32057;47.830;19.046;2024-01-10T07:08:52;8.00;;;4.75;;
46348;SDS011;32057;47.830;19.046;2024-01-10T07:11:18;9.65;;;3.20;;
46348;SDS011;32057;47.830;19.046;2024-01-10T07:13:46;5.55;;;2.45;;
46348;SDS011;32057;47.830;19.046;2024-01-10T07:16:12;6.70;;;3.28;;
46348;SDS011;32057;47.830;19.046;2024-01-10T07:18:40;8.00;;;3.92;;
46348;SDS011;32057;47.830;19.046;2024-01-10T07:21:05;4.75;;;2.83;;
46348;SDS011;32057;47.830;19.046;2024-01-10T07:23:31;4.80;;;3.00;;
46348;SDS011;32057;47.830;19.046;2024-01-10T07:25:57;7.55;;;4.50;;
46348;SDS011;32057;47.830;19.046;2024-01-10T07:28:22;3.20;;;2.95;;
46348;SDS011;32057;47.830;19.046;2024-01-10T07:30:47;4.32;;;3.92;;
46348;SDS011;32057;47.830;19.046;2024-01-10T07:33:13;12.80;;;6.03;;
46348;SDS011;32057;47.830;19.046;2024-01-10T07:35:39;4.20;;;3.75;;
46348;SDS011;32057;47.830;19.046;2024-01-10T07:38:07;12.27;;;6.50;;
46348;SDS011;32057;47.830;19.046;2024-01-10T07:40:33;9.32;;;6.15;;
46348;SDS011;32057;47.830;19.046;2024-01-10T07:42:59;7.32;;;4.53;;
46348;SDS011;32057;47.830;19.046;2024-01-10T07:45:24;8.75;;;6.05;;
46348;SDS011;32057;47.830;19.046;2024-01-10T07:47:50;6.22;;;3.78;;
46348;SDS011;32057;47.830;19.046;2024-01-10T07:50:15;8.07;;;4.78;;
46348;SDS011;32057;47.830;19.046;2024-01-10T07:52:40;7.78;;;3.92;;
46348;SDS011;32057;47.830;19.046;2024-01-10T07:55:07;9.07;;;4.35;;
46348;SDS011;32057;47.830;19.046;2024-01-10T07:57:33;12.50;;;6.32;;
46348;SDS011;32057;47.830;19.046;2024-01-10T07:59:59;6.10;;;5.35;;
46348;SDS011;32057;47.830;19.046;2024-01-10T08:02:25;5.70;;;5.10;;
46348;SDS011;32057;47.830;19.046;2024-01-10T08:04:50;11.82;;;6.13;;
46348;SDS011;32057;47.830;19.046;2024-01-10T08:07:16;6.18;;;4.15;;
46348;SDS011;32057;47.830;19.046;2024-01-10T08:09:41;10.88;;;5.97;;
46348;SDS011;32057;47.830;19.046;2024-01-10T08:12:07;7.20;;;4.55;;
46348;SDS011;32057;47.830;19.046;2024-01-10T08:14:32;9.07;;;5.50;;
46348;SDS011;32057;47.830;19.046;2024-01-10T08:16:58;5.38;;;3.80;;
46348;SDS011;32057;47.830;19.046;2024-01-10T08:19:26;7.57;;;5.10;;
46348;SDS011;32057;47.830;19.046;2024-01-10T08:21:55;9.18;;;6.90;;
46348;SDS011;32057;47.830;19.046;2024-01-10T08:24:21;12.07;;;6.18;;
46348;SDS011;32057;47.830;19.046;2024-01-10T08:26:47;14.13;;;6.03;;
46348;SDS011;32057;47.830;19.046;2024-01-10T08:29:17;11.70;;;5.50;;
46348;SDS011;32057;47.830;19.046;2024-01-10T08:31:43;13.77;;;5.30;;
46348;SDS011;32057;47.830;19.046;2024-01-10T08:34:09;12.73;;;6.82;;
46348;SDS011;32057;47.830;19.046;2024-01-10T08:36:34;9.90;;;5.90;;
46348;SDS011;32057;47.830;19.046;2024-01-10T08:38:59;9.68;;;7.32;;
46348;SDS011;32057;47.830;19.046;2024-01-10T08:41:25;12.52;;;9.27;;
46348;SDS011;32057;47.830;19.046;2024-01-10T08:43:50;13.82;;;7.70;;
46348;SDS011;32057;47.830;19.046;2024-01-10T08:46:16;13.90;;;5.18;;
46348;SDS011;32057;47.830;19.046;2024-01-10T08:48:41;7.13;;;4.70;;
46348;SDS011;32057;47.830;19.046;2024-01-10T08:51:07;14.27;;;7.47;;
46348;SDS011;32057;47.830;19.046;2024-01-10T08:53:34;9.52;;;5.00;;
46348;SDS011;32057;47.830;19.046;2024-01-10T08:56:00;7.97;;;5.38;;
46348;SDS011;32057;47.830;19.046;2024-01-10T08:58:25;5.97;;;4.40;;
46348;SDS011;32057;47.830;19.046;2024-01-10T09:00:50;10.05;;;5.57;;
46348;SDS011;32057;47.830;19.046;2024-01-10T09:03:16;6.85;;;3.13;;
46348;SDS011;32057;47.830;19.046;2024-01-10T09:05:41;8.05;;;3.78;;
46348;SDS011;32057;47.830;19.046;2024-01-10T09:08:06;7.00;;;4.47;;
46348;SDS011;32057;47.830;19.046;2024-01-10T09:10:32;10.57;;;5.97;;
46348;SDS011;32057;47.830;19.046;2024-01-10T09:12:58;14.43;;;4.60;;
46348;SDS011;32057;47.830;19.046;2024-01-10T09:15:24;4.50;;;3.22;;
46348;SDS011;32057;47.830;19.046;2024-01-10T09:17:49;5.15;;;2.80;;
46348;SDS011;32057;47.830;19.046;2024-01-10T09:20:17;18.00;;;4.15;;
46348;SDS011;32057;47.830;19.046;2024-01-10T09:22:42;7.25;;;3.50;;
46348;SDS011;32057;47.830;19.046;2024-01-10T09:25:07;10.55;;;4.25;;
46348;SDS011;32057;47.830;19.046;2024-01-10T09:27:34;3.30;;;2.83;;
46348;SDS011;32057;47.830;19.046;2024-01-10T09:30:03;4.15;;;3.25;;
46348;SDS011;32057;47.830;19.046;2024-01-10T09:32:33;10.88;;;3.58;;
46348;SDS011;32057;47.830;19.046;2024-01-10T09:34:58;7.05;;;3.53;;
46348;SDS011;32057;47.830;19.046;2024-01-10T09:37:23;8.70;;;4.18;;
46348;SDS011;32057;47.830;19.046;2024-01-10T09:39:49;4.57;;;3.10;;
46348;SDS011;32057;47.830;19.046;2024-01-10T09:42:14;8.13;;;3.15;;
46348;SDS011;32057;47.830;19.046;2024-01-10T09:44:40;11.85;;;5.03;;
46348;SDS011;32057;47.830;19.046;2024-01-10T09:47:06;6.03;;;3.28;;
46348;SDS011;32057;47.830;19.046;2024-01-10T09:49:32;5.25;;;4.13;;
46348;SDS011;32057;47.830;19.046;2024-01-10T09:51:59;3.72;;;2.78;;
46348;SDS011;32057;47.830;19.046;2024-01-10T09:54:26;8.05;;;4.32;;
46348;SDS011;32057;47.830;19.046;2024-01-10T09:56:54;17.55;;;3.13;;
46348;SDS011;32057;47.830;19.046;2024-01-10T09:59:20;5.95;;;2.63;;
46348;SDS011;32057;47.830;19.046;2024-01-10T10:01:46;13.75;;;4.18;;
46348;SDS011;32057;47.830;19.046;2024-01-10T10:04:12;6.00;;;3.78;;
46348;SDS011;32057;47.830;19.046;2024-01-10T10:06:38;4.32;;;3.85;;
46348;SDS011;32057;47.830;19.046;2024-01-10T10:09:03;5.18;;;3.58;;
46348;SDS011;32057;47.830;19.046;2024-01-10T10:11:29;5.80;;;3.33;;
46348;SDS011;32057;47.830;19.046;2024-01-10T10:13:55;10.98;;;3.95;;
46348;SDS011;32057;47.830;19.046;2024-01-10T10:16:24;6.85;;;3.20;;
46348;SDS011;32057;47.830;19.046;2024-01-10T10:18:51;5.68;;;2.63;;
46348;SDS011;32057;47.830;19.046;2024-01-10T10:21:22;6.57;;;2.90;;
46348;SDS011;32057;47.830;19.046;2024-01-10T10:23:59;14.15;;;3.83;;
46348;SDS011;32057;47.830;19.046;2024-01-10T10:26:27;8.65;;;2.13;;
46348;SDS011;32057;47.830;19.046;2024-01-10T10:28:54;3.45;;;2.47;;
46348;SDS011;32057;47.830;19.046;2024-01-10T10:31:21;7.35;;;3.42;;
46348;SDS011;32057;47.830;19.046;2024-01-10T10:33:48;11.57;;;3.13;;
46348;SDS011;32057;47.830;19.046;2024-01-10T10:36:17;7.30;;;4.10;;
46348;SDS011;32057;47.830;19.046;2024-01-10T10:38:44;7.50;;;2.50;;
46348;SDS011;32057;47.830;19.046;2024-01-10T10:41:12;4.25;;;3.03;;
46348;SDS011;32057;47.830;19.046;2024-01-10T10:43:39;3.92;;;2.08;;
46348;SDS011;32057;47.830;19.046;2024-01-10T10:46:05;5.00;;;2.83;;
46348;SDS011;32057;47.830;19.046;2024-01-10T10:48:33;4.18;;;2.33;;
46348;SDS011;32057;47.830;19.046;2024-01-10T10:51:05;2.72;;;2.13;;
46348;SDS011;32057;47.830;19.046;2024-01-10T10:53:34;5.47;;;2.37;;
46348;SDS011;32057;47.830;19.046;2024-01-10T10:56:02;3.35;;;2.05;;
46348;SDS011;32057;47.830;19.046;2024-01-10T10:58:31;6.40;;;2.38;;
46348;SDS011;32057;47.830;19.046;2024-01-10T11:00:58;9.93;;;3.17;;
46348;SDS011;32057;47.830;19.046;2024-01-10T11:03:24;2.42;;;2.15;;
46348;SDS011;32057;47.830;19.046;2024-01-10T11:05:52;2.50;;;2.00;;
46348;SDS011;32057;47.830;19.046;2024-01-10T11:08:19;1.77;;;1.63;;
46348;SDS011;32057;47.830;19.046;2024-01-10T11:10:46;5.20;;;3.20;;
46348;SDS011;32057;47.830;19.046;2024-01-10T11:22:07;5.03;;;2.70;;
46348;SDS011;32057;47.830;19.046;2024-01-10T11:24:47;6.70;;;1.95;;
46348;SDS011;32057;47.830;19.046;2024-01-10T11:27:14;2.95;;;1.83;;
46348;SDS011;32057;47.830;19.046;2024-01-10T11:29:40;2.95;;;1.65;;
46348;SDS011;32057;47.830;19.046;2024-01-10T11:32:22;2.85;;;2.20;;
46348;SDS011;32057;47.830;19.046;2024-01-10T11:34:50;3.53;;;2.05;;
46348;SDS011;32057;47.830;19.046;2024-01-10T11:37:15;4.82;;;2.40;;
46348;SDS011;32057;47.830;19.046;2024-01-10T11:39:41;5.15;;;3.42;;
46348;SDS011;32057;47.830;19.046;2024-01-10T11:42:08;5.00;;;2.90;;
46348;SDS011;32057;47.830;19.046;2024-01-10T11:44:34;5.30;;;2.65;;
46348;SDS011;32057;47.830;19.046;2024-01-10T11:47:01;4.55;;;2.88;;
46348;SDS011;32057;47.830;19.046;2024-01-10T11:49:28;7.20;;;3.60;;
46348;SDS011;32057;47.830;19.046;2024-01-10T11:51:57;8.68;;;3.47;;
46348;SDS011;32057;47.830;19.046;2024-01-10T11:54:42;6.32;;;3.50;;
46348;SDS011;32057;47.830;19.046;2024-01-10T11:59:51;6.28;;;2.90;;
46348;SDS011;32057;47.830;19.046;2024-01-10T12:02:18;11.05;;;4.97;;
46348;SDS011;32057;47.830;19.046;2024-01-10T12:04:44;6.32;;;4.97;;
46348;SDS011;32057;47.830;19.046;2024-01-10T12:07:11;3.42;;;2.70;;
46348;SDS011;32057;47.830;19.046;2024-01-10T12:09:37;8.38;;;5.28;;
46348;SDS011;32057;47.830;19.046;2024-01-10T12:12:02;5.50;;;4.03;;
46348;SDS011;32057;47.830;19.046;2024-01-10T12:14:28;6.53;;;3.47;;
46348;SDS011;32057;47.830;19.046;2024-01-10T12:16:54;2.75;;;2.38;;
46348;SDS011;32057;47.830;19.046;2024-01-10T12:19:20;7.00;;;2.83;;
46348;SDS011;32057;47.830;19.046;2024-01-10T12:21:45;4.85;;;3.50;;
46348;SDS011;32057;47.830;19.046;2024-01-10T12:24:10;8.85;;;3.72;;
46348;SDS011;32057;47.830;19.046;2024-01-10T12:26:36;6.10;;;3.08;;
46348;SDS011;32057;47.830;19.046;2024-01-10T12:29:08;4.57;;;2.92;;
46348;SDS011;32057;47.830;19.046;2024-01-10T12:31:35;5.47;;;2.92;;
46348;SDS011;32057;47.830;19.046;2024-01-10T12:34:02;4.38;;;3.00;;
46348;SDS011;32057;47.830;19.046;2024-01-10T12:36:27;5.78;;;3.17;;
46348;SDS011;32057;47.830;19.046;2024-01-10T12:38:53;4.60;;;3.13;;
46348;SDS011;32057;47.830;19.046;2024-01-10T12:41:19;4.75;;;2.42;;
46348;SDS011;32057;47.830;19.046;2024-01-10T12:43:54;3.65;;;2.58;;
46348;SDS011;32057;47.830;19.046;2024-01-10T12:46:20;5.32;;;3.00;;
46348;SDS011;32057;47.830;19.046;2024-01-10T12:48:59;8.00;;;3.92;;
46348;SDS011;32057;47.830;19.046;2024-01-10T12:51:30;2.83;;;2.20;;
46348;SDS011;32057;47.830;19.046;2024-01-10T12:53:56;4.82;;;3.28;;
46348;SDS011;32057;47.830;19.046;2024-01-10T12:56:25;5.50;;;3.50;;
46348;SDS011;32057;47.830;19.046;2024-01-10T12:58:52;12.18;;;4.10;;
46348;SDS011;32057;47.830;19.046;2024-01-10T13:01:17;7.88;;;3.17;;
46348;SDS011;32057;47.830;19.046;2024-01-10T13:03:43;12.82;;;3.58;;
46348;SDS011;32057;47.830;19.046;2024-01-10T13:06:08;6.13;;;4.10;;
46348;SDS011;32057;47.830;19.046;2024-01-10T13:08:34;8.77;;;3.35;;
46348;SDS011;32057;47.830;19.046;2024-01-10T13:11:00;6.47;;;3.83;;
46348;SDS011;32057;47.830;19.046;2024-01-10T13:13:25;7.32;;;4.07;;
46348;SDS011;32057;47.830;19.046;2024-01-10T13:15:50;26.30;;;5.53;;
46348;SDS011;32057;47.830;19.046;2024-01-10T13:18:16;5.40;;;3.58;;
46348;SDS011;32057;47.830;19.046;2024-01-10T13:20:42;7.88;;;4.25;;
46348;SDS011;32057;47.830;19.046;2024-01-10T13:23:08;8.80;;;4.15;;
46348;SDS011;32057;47.830;19.046;2024-01-10T13:25:34;7.55;;;2.85;;
46348;SDS011;32057;47.830;19.046;2024-01-10T13:28:00;11.98;;;5.05;;
46348;SDS011;32057;47.830;19.046;2024-01-10T13:30:25;6.50;;;4.28;;
46348;SDS011;32057;47.830;19.046;2024-01-10T13:32:51;6.05;;;3.42;;
46348;SDS011;32057;47.830;19.046;2024-01-10T13:35:17;9.95;;;3.65;;
46348;SDS011;32057;47.830;19.046;2024-01-10T13:37:42;6.13;;;3.95;;
46348;SDS011;32057;47.830;19.046;2024-01-10T13:40:08;6.43;;;3.05;;
46348;SDS011;32057;47.830;19.046;2024-01-10T13:42:39;7.57;;;4.47;;
46348;SDS011;32057;47.830;19.046;2024-01-10T13:45:10;5.70;;;3.63;;
46348;SDS011;32057;47.830;19.046;2024-01-10T13:47:36;7.28;;;4.05;;
46348;SDS011;32057;47.830;19.046;2024-01-10T13:50:02;7.35;;;4.40;;
46348;SDS011;32057;47.830;19.046;2024-01-10T13:52:28;17.52;;;4.32;;
46348;SDS011;32057;47.830;19.046;2024-01-10T13:54:55;7.70;;;5.07;;
46348;SDS011;32057;47.830;19.046;2024-01-10T13:57:21;8.20;;;4.90;;
46348;SDS011;32057;47.830;19.046;2024-01-10T13:59:47;5.40;;;4.10;;
46348;SDS011;32057;47.830;19.046;2024-01-10T14:02:12;11.65;;;4.45;;
46348;SDS011;32057;47.830;19.046;2024-01-10T14:04:38;9.13;;;5.40;;
46348;SDS011;32057;47.830;19.046;2024-01-10T14:07:04;5.78;;;4.10;;
46348;SDS011;32057;47.830;19.046;2024-01-10T14:09:32;15.20;;;6.00;;
46348;SDS011;32057;47.830;19.046;2024-01-10T14:11:57;9.38;;;5.15;;
46348;SDS011;32057;47.830;19.046;2024-01-10T14:14:23;24.92;;;5.05;;
46348;SDS011;32057;47.830;19.046;2024-01-10T14:16:49;5.65;;;3.28;;
46348;SDS011;32057;47.830;19.046;2024-01-10T14:19:14;15.75;;;4.85;;
46348;SDS011;32057;47.830;19.046;2024-01-10T14:21:42;10.23;;;5.15;;
46348;SDS011;32057;47.830;19.046;2024-01-10T14:24:07;9.70;;;5.30;;
46348;SDS011;32057;47.830;19.046;2024-01-10T14:26:33;8.55;;;5.68;;
46348;SDS011;32057;47.830;19.046;2024-01-10T14:28:58;19.38;;;7.20;;
46348;SDS011;32057;47.830;19.046;2024-01-10T14:31:24;12.10;;;7.25;;
46348;SDS011;32057;47.830;19.046;2024-01-10T14:33:49;9.40;;;6.05;;
46348;SDS011;32057;47.830;19.046;2024-01-10T14:36:16;8.65;;;5.95;;
46348;SDS011;32057;47.830;19.046;2024-01-10T14:38:41;15.38;;;8.05;;